Time;durP1;ratioP1;P1;durP2;ratioP2;P2;SDS_P1;SDS_P2;PMS_P1;PMS_P2;Temp;Humidity;BMP_temperature;BMP_pressure;BME280_temperature;BME280_humidity;BME280_pressure;Samples;Min_cycle;Max_cycle;Signal;HPM_P1;HPM_P2
2022/09/04 00:02:10;;;;;;;4.78;2.40;;;;;;;-148.88;48.27;75299.91;5046777;28;20045;-79
2022/09/04 00:04:46;;;;;;;2.83;1.90;;;;;;;-148.88;48.36;75306.00;5048280;28;20055;-79
2022/09/04 00:07:37;;;;;;;3.28;2.00;;;;;;;-148.88;48.47;75306.00;5051378;28;20060;-80
2022/09/04 00:10:05;;;;;;;3.83;1.77;;;;;;;-148.88;48.81;75314.13;5051251;28;20479;-80
2022/09/04 00:12:36;;;;;;;4.03;2.00;;;;;;;-148.88;49.28;75334.44;5051709;28;20029;-80
2022/09/04 00:15:27;;;;;;;2.90;1.80;;;;;;;-148.88;49.42;75342.56;5052053;28;20030;-79
2022/09/04 00:18:02;;;;;;;4.72;1.98;;;;;;;-148.88;49.55;75338.50;5051465;28;20079;-79
2022/09/04 00:20:48;;;;;;;3.13;1.80;;;;;;;-148.88;49.65;75354.75;5051716;28;20032;-79
2022/09/04 00:23:24;;;;;;;5.13;2.20;;;;;;;-148.88;49.67;75352.72;5050238;28;20033;-79
2022/09/04 00:25:52;;;;;;;4.25;1.85;;;;;;;-148.88;50.22;75364.91;5051129;28;20406;-80
2022/09/04 00:28:34;;;;;;;4.30;1.90;;;;;;;-148.88;50.03;75366.94;5041544;28;20025;-78
2022/09/04 00:31:27;;;;;;;4.68;1.75;;;;;;;-148.88;50.46;75366.94;5043047;28;20373;-78
2022/09/04 00:34:11;;;;;;;3.92;2.00;;;;;;;-148.88;50.28;75375.06;5047489;28;20063;-80
2022/09/04 00:36:41;;;;;;;3.42;2.00;;;;;;;-148.88;50.54;75379.13;5047578;28;20042;-79
2022/09/04 00:39:35;;;;;;;3.97;1.77;;;;;;;-148.88;50.49;75371.00;5048404;28;20037;-80
2022/09/04 00:42:04;;;;;;;3.20;2.08;;;;;;;-148.88;50.23;75381.16;5051088;28;20048;-80
2022/09/04 00:44:56;;;;;;;2.67;1.60;;;;;;;-148.88;50.10;75387.25;5050586;28;20399;-81
2022/09/04 00:47:38;;;;;;;2.35;1.50;;;;;;;-148.88;50.38;75395.38;5051087;28;20549;-81
2022/09/04 00:50:10;;;;;;;3.40;1.90;;;;;;;-148.88;50.94;75395.38;5051064;28;20052;-80
2022/09/04 00:52:42;;;;;;;3.20;1.88;;;;;;;-148.88;51.15;75405.53;5052812;28;20017;-80
2022/09/04 00:55:39;;;;;;;2.55;1.70;;;;;;;-148.88;51.43;75405.53;5050667;28;20102;-80
2022/09/04 00:58:45;;;;;;;3.28;1.90;;;;;;;-148.88;51.54;75403.50;5049587;28;20030;-80
2022/09/04 01:01:20;;;;;;;3.65;1.75;;;;;;;-148.88;51.66;75427.88;5050628;28;20026;-79
2022/09/04 01:03:54;;;;;;;3.17;1.80;;;;;;;-148.88;51.92;75442.09;5048358;28;20028;-80
2022/09/04 01:06:41;;;;;;;3.90;1.70;;;;;;;-148.88;52.35;75442.09;5039837;28;20017;-79
2022/09/04 01:09:34;;;;;;;2.97;1.70;;;;;;;-148.88;52.56;75444.13;5041568;28;20025;-80
2022/09/04 01:12:18;;;;;;;2.75;1.70;;;;;;;-148.88;52.01;75448.19;5043638;28;20022;-79
2022/09/04 01:15:07;;;;;;;3.20;1.60;;;;;;;-148.88;51.96;75464.44;5044707;28;20060;-79
2022/09/04 01:17:50;;;;;;;3.75;2.00;;;;;;;-148.88;52.16;75468.50;5046201;28;20025;-80
2022/09/04 01:20:42;;;;;;;3.53;1.80;;;;;;;-148.88;52.44;75476.63;5047306;28;20021;-79
2022/09/04 01:23:36;;;;;;;4.05;1.83;;;;;;;-148.88;53.89;75517.25;5049745;28;20373;-79
2022/09/04 01:26:08;;;;;;;5.03;1.70;;;;;;;-148.88;53.36;75501.00;5048698;28;20036;-79
2022/09/04 01:28:58;;;;;;;4.13;1.95;;;;;;;-148.88;53.48;75505.06;5050937;28;20442;-81
2022/09/04 01:32:01;;;;;;;4.05;2.15;;;;;;;-148.88;53.49;75501.00;5051903;28;20021;-80
2022/09/04 01:34:56;;;;;;;3.22;1.80;;;;;;;-148.88;53.53;75509.13;5050711;28;20036;-80
2022/09/04 01:37:42;;;;;;;4.03;2.10;;;;;;;-148.88;53.70;75533.50;5051627;28;20026;-80
2022/09/04 01:40:35;;;;;;;3.55;2.20;;;;;;;-148.88;54.02;75545.69;5050396;28;20072;-79
2022/09/04 01:43:03;;;;;;;2.78;1.60;;;;;;;-148.88;54.24;75537.56;5042272;28;20025;-79
2022/09/04 01:46:03;;;;;;;3.55;2.05;;;;;;;-148.88;54.55;75527.41;5041256;28;20390;-79
2022/09/04 01:48:42;;;;;;;4.07;2.28;;;;;;;-148.88;54.43;75517.25;5042078;28;20036;-79
2022/09/04 01:51:31;;;;;;;3.92;2.00;;;;;;;-148.88;54.76;75521.31;5043380;28;20125;-79
2022/09/04 01:54:19;;;;;;;4.20;2.33;;;;;;;-148.88;54.80;75529.44;5045135;28;20025;-79
2022/09/04 01:57:08;;;;;;;4.70;2.15;;;;;;;-148.88;54.51;75521.31;5052392;28;20025;-80
2022/09/04 01:59:52;;;;;;;4.32;2.17;;;;;;;-148.88;54.80;75531.47;5051974;28;20044;-81
2022/09/04 02:02:32;;;;;;;4.25;2.15;;;;;;;-148.88;55.11;75523.34;5052185;28;20428;-80
2022/09/04 02:05:07;;;;;;;3.78;1.90;;;;;;;-148.88;54.95;75529.44;5051464;28;20013;-80
2022/09/04 02:07:45;;;;;;;3.92;2.10;;;;;;;-148.88;54.97;75527.41;5051671;28;20025;-80
2022/09/04 02:10:38;;;;;;;4.90;2.00;;;;;;;-148.88;55.20;75529.44;5050453;28;20041;-80
2022/09/04 02:13:21;;;;;;;4.00;2.10;;;;;;;-148.88;55.05;75535.53;5049162;28;20028;-80
2022/09/04 02:16:19;;;;;;;3.30;1.80;;;;;;;-148.88;55.17;75537.56;5048323;28;20021;-80
2022/09/04 02:19:16;;;;;;;3.35;1.90;;;;;;;-148.88;55.41;75543.66;5048189;28;20101;-80
2022/09/04 02:22:00;;;;;;;4.15;1.88;;;;;;;-148.88;56.16;75553.81;5038594;28;20025;-79
2022/09/04 02:24:50;;;;;;;4.60;2.10;;;;;;;-148.88;56.00;75559.91;5039462;28;20037;-79
2022/09/04 02:27:41;;;;;;;5.45;2.10;;;;;;;-148.88;56.10;75574.13;5042001;28;20048;-79
2022/09/04 02:30:12;;;;;;;4.18;2.33;;;;;;;-148.88;56.42;75574.13;5044305;28;20105;-80
2022/09/04 02:33:10;;;;;;;5.97;2.22;;;;;;;-148.88;56.31;75566.00;5043924;28;20036;-80
2022/09/04 02:35:46;;;;;;;5.00;2.38;;;;;;;-148.88;56.27;75563.97;5044886;28;20053;-80
2022/09/04 02:38:23;;;;;;;4.13;2.50;;;;;;;-148.88;55.89;75555.84;5047070;28;20025;-80
2022/09/04 02:40:54;;;;;;;3.67;2.38;;;;;;;-148.88;55.89;75549.75;5048742;28;20039;-80
2022/09/04 02:43:42;;;;;;;5.03;2.20;;;;;;;-148.88;55.89;75549.75;5046711;28;20021;-79
2022/09/04 02:46:35;;;;;;;3.80;2.10;;;;;;;-148.88;55.97;75557.88;5047806;28;20026;-80
2022/09/04 02:49:19;;;;;;;4.20;2.13;;;;;;;-148.88;56.34;75561.94;5048235;28;20033;-80
2022/09/04 02:52:00;;;;;;;4.72;2.53;;;;;;;-148.88;56.55;75557.88;5047460;28;20045;-80
2022/09/04 02:55:00;;;;;;;3.13;2.13;;;;;;;-148.88;56.84;75566.00;5047806;28;20034;-79
2022/09/04 02:57:53;;;;;;;4.63;2.45;;;;;;;-148.88;56.72;75576.13;5039526;28;20013;-79
2022/09/04 03:00:37;;;;;;;3.70;2.08;;;;;;;-148.88;56.84;75574.13;5039465;28;20056;-80
2022/09/04 03:03:11;;;;;;;3.53;2.00;;;;;;;-148.88;57.02;75582.22;5039733;28;20068;-80
2022/09/04 03:06:04;;;;;;;4.15;2.50;;;;;;;-148.88;57.19;75598.47;5042961;28;20055;-79
2022/09/04 03:08:52;;;;;;;3.67;2.20;;;;;;;-148.88;57.26;75594.44;5043912;28;20108;-80
2022/09/04 03:11:37;;;;;;;3.92;2.08;;;;;;;-148.88;57.51;75606.59;5044668;28;20028;-79
2022/09/04 03:14:11;;;;;;;3.83;2.30;;;;;;;-148.88;57.51;75612.69;5044538;28;20034;-80
2022/09/04 03:16:45;;;;;;;4.22;2.45;;;;;;;-148.88;57.92;75614.72;5046910;28;20029;-80
2022/09/04 03:19:30;;;;;;;4.53;2.25;;;;;;;-148.88;58.25;75610.66;5045202;28;20443;-80
2022/09/04 03:22:18;;;;;;;5.53;2.50;;;;;;;-148.88;58.06;75612.69;5047377;28;20028;-80
2022/09/04 03:25:02;;;;;;;3.15;2.13;;;;;;;-148.88;58.23;75618.78;5047119;28;20469;-80
2022/09/04 03:27:31;;;;;;;3.78;2.05;;;;;;;-148.88;58.05;75610.66;5047996;28;20025;-80
2022/09/04 03:30:10;;;;;;;4.20;2.00;;;;;;;-148.88;58.50;75626.91;5045165;28;20093;-80
2022/09/04 03:33:02;;;;;;;4.57;2.47;;;;;;;-148.88;58.55;75620.81;5047054;28;20022;-80
2022/09/04 03:35:30;;;;;;;3.83;2.38;;;;;;;-148.88;58.58;75616.75;5036460;28;20053;-79
2022/09/04 03:38:10;;;;;;;3.88;2.22;;;;;;;-148.88;58.68;75618.78;5038373;28;20083;-80
2022/09/04 03:40:59;;;;;;;3.72;2.20;;;;;;;-148.88;58.92;75630.97;5043509;28;20036;-80
2022/09/04 03:43:43;;;;;;;4.70;2.20;;;;;;;-148.88;58.94;75643.16;5050497;28;20021;-80
2022/09/04 03:46:14;;;;;;;3.22;2.00;;;;;;;-148.88;59.10;75635.03;5049771;28;20021;-80
2022/09/04 03:49:08;;;;;;;4.28;2.03;;;;;;;-148.88;59.34;75643.16;5048979;28;20025;-80
2022/09/04 03:52:10;;;;;;;4.85;2.30;;;;;;;-148.88;59.88;75657.38;5050063;28;20026;-79
2022/09/04 03:55:09;;;;;;;3.75;1.90;;;;;;;-148.88;59.75;75659.41;5050983;28;20093;-79
2022/09/04 03:57:47;;;;;;;3.88;2.20;;;;;;;-148.88;59.80;75663.47;5050408;28;20025;-79
2022/09/04 04:00:18;;;;;;;4.15;2.22;;;;;;;-148.88;59.63;75667.53;5050844;28;20388;-79
2022/09/04 04:03:05;;;;;;;3.72;2.20;;;;;;;-148.88;59.58;75663.47;5050951;28;20013;-79
2022/09/04 04:06:03;;;;;;;3.28;2.10;;;;;;;-148.88;60.22;75667.53;5050290;28;20020;-79
2022/09/04 04:08:56;;;;;;;4.72;2.10;;;;;;;-148.88;60.03;75681.75;5050825;28;20025;-80
2022/09/04 04:11:50;;;;;;;5.05;2.35;;;;;;;-148.88;60.89;75712.22;5045447;28;20021;-79
2022/09/04 04:14:42;;;;;;;7.32;2.58;;;;;;;-148.88;62.02;75726.44;5040889;28;20026;-78
2022/09/04 04:17:30;;;;;;;5.68;2.38;;;;;;;-148.88;61.70;75718.31;5041906;28;20022;-78
2022/09/04 04:20:29;;;;;;;3.83;2.63;;;;;;;-148.88;61.92;75718.31;5044680;28;20430;-78
2022/09/04 04:23:05;;;;;;;5.18;2.42;;;;;;;-148.88;62.02;75716.28;5045457;28;20020;-79
2022/09/04 04:25:49;;;;;;;4.97;2.40;;;;;;;-148.88;62.07;75714.25;5045421;28;20026;-79
2022/09/04 04:28:58;;;;;;;4.88;2.58;;;;;;;-148.88;61.85;75716.28;5047905;28;20017;-78
2022/09/04 04:31:40;;;;;;;3.92;2.80;;;;;;;-148.88;61.74;75716.28;5048002;28;20025;-79
2022/09/04 04:34:23;;;;;;;5.28;3.03;;;;;;;-148.88;61.73;75716.28;5049889;28;20436;-78
2022/09/04 04:37:10;;;;;;;4.70;2.75;;;;;;;-148.88;62.31;75720.34;5048893;28;20100;-79
2022/09/04 04:39:57;;;;;;;5.40;2.78;;;;;;;-148.88;62.10;75726.44;5050393;28;20029;-79
2022/09/04 04:42:33;;;;;;;4.85;2.70;;;;;;;-148.88;61.97;75722.38;5049432;28;20021;-80
2022/09/04 04:48:50;;;;;;;5.53;2.65;;;;;;;-148.88;62.26;75732.53;5049610;28;20031;-79
2022/09/04 04:51:39;;;;;;;5.28;3.00;;;;;;;-148.88;62.54;75736.59;5036740;28;20108;-78
2022/09/04 04:54:33;;;;;;;4.60;2.97;;;;;;;-148.88;63.02;75748.78;5022135;28;20037;-79
2022/09/04 04:57:43;;;;;;;4.25;2.60;;;;;;;-148.88;62.66;75740.66;5040894;28;20479;-78
2022/09/04 05:00:18;;;;;;;4.28;2.58;;;;;;;-148.88;62.87;75738.63;5050817;28;20372;-78
2022/09/04 05:03:06;;;;;;;5.50;2.60;;;;;;;-148.88;62.83;75740.66;5051659;28;20456;-79
2022/09/04 05:05:38;;;;;;;4.38;2.90;;;;;;;-148.88;62.65;75740.66;5050835;28;20071;-79
2022/09/04 05:08:25;;;;;;;5.10;2.60;;;;;;;-148.88;62.88;75748.78;5052219;28;20033;-79
2022/09/04 05:11:03;;;;;;;6.72;2.70;;;;;;;-148.88;63.00;75748.78;5051728;28;20602;-78
2022/09/04 05:13:47;;;;;;;5.93;2.35;;;;;;;-148.88;63.13;75744.72;5051864;28;20120;-79
2022/09/04 05:16:29;;;;;;;4.68;2.80;;;;;;;-148.88;62.90;75746.75;5050179;28;20018;-78
2022/09/04 05:19:11;;;;;;;3.65;2.33;;;;;;;-148.88;62.92;75748.78;5049562;28;20049;-79
2022/09/04 05:21:48;;;;;;;6.82;2.50;;;;;;;-148.88;63.10;75748.78;5051600;28;20100;-79
2022/09/04 05:24:30;;;;;;;4.13;2.00;;;;;;;-148.88;63.15;75744.72;5047598;28;20030;-79
2022/09/04 05:27:06;;;;;;;4.90;2.63;;;;;;;-148.88;63.36;75748.78;5042316;28;20088;-76
2022/09/04 05:29:50;;;;;;;4.18;2.65;;;;;;;-148.88;63.42;75744.72;5039687;28;20455;-78
2022/09/04 05:32:32;;;;;;;5.00;2.83;;;;;;;-148.88;63.71;75763.00;5041392;28;20021;-76
2022/09/04 05:35:17;;;;;;;4.82;2.70;;;;;;;-148.88;63.40;75752.84;5044943;28;20029;-79
2022/09/04 05:37:57;;;;;;;7.50;2.90;;;;;;;-148.88;63.65;75744.72;5047489;28;20033;-77
2022/09/04 05:40:48;;;;;;;4.43;2.60;;;;;;;-148.88;63.73;75742.69;5045622;28;20036;-79
2022/09/04 05:43:47;;;;;;;4.40;2.90;;;;;;;-148.88;63.71;75744.72;5045476;28;20125;-78
2022/09/04 05:46:38;;;;;;;4.63;2.72;;;;;;;-148.88;64.09;75748.78;5046650;28;20442;-78
2022/09/04 05:49:20;;;;;;;4.78;2.85;;;;;;;-148.88;63.98;75740.66;5046166;28;20074;-78
2022/09/04 05:52:19;;;;;;;5.70;2.88;;;;;;;-148.88;63.47;75732.53;5046383;28;20071;-79
2022/09/04 05:55:15;;;;;;;3.90;2.65;;;;;;;-148.88;63.37;75728.47;5045158;28;20041;-78
2022/09/04 05:58:11;;;;;;;4.60;3.00;;;;;;;-148.88;63.18;75716.28;5044862;28;20077;-79
2022/09/04 06:01:02;;;;;;;4.75;2.55;;;;;;;-148.88;63.06;75712.22;5042788;28;20022;-79
2022/09/04 06:03:49;;;;;;;3.75;2.58;;;;;;;-148.88;62.60;75698.00;5042029;28;20028;-78
2022/09/04 06:06:29;;;;;;;4.22;2.88;;;;;;;-148.88;62.60;75693.94;5039784;28;20018;-77
2022/09/04 06:09:21;;;;;;;6.45;2.90;;;;;;;-148.88;62.67;75687.84;5040587;28;20025;-77
2022/09/04 06:12:11;;;;;;;5.22;2.72;;;;;;;-148.88;62.45;75677.69;5041960;28;20085;-78
2022/09/04 06:14:48;;;;;;;18.08;3.28;;;;;;;-148.88;62.01;75673.63;5044521;28;20029;-78
2022/09/04 06:17:44;;;;;;;3.83;2.67;;;;;;;-148.88;62.87;75677.69;5045695;28;20025;-79
2022/09/04 06:20:41;;;;;;;4.15;2.50;;;;;;;-148.88;62.50;75675.66;5036420;28;20029;-78
2022/09/04 06:23:27;;;;;;;3.33;2.45;;;;;;;-148.88;62.22;75675.66;5045794;28;20032;-78
2022/09/04 06:26:16;;;;;;;5.28;2.90;;;;;;;-148.88;62.75;75675.66;5044143;28;20037;-78
2022/09/04 06:29:04;;;;;;;4.45;2.92;;;;;;;-148.88;62.23;75671.59;5045598;28;20048;-79
2022/09/04 06:32:07;;;;;;;4.88;2.45;;;;;;;-148.88;61.84;75663.47;5044925;28;20025;-79
2022/09/04 06:34:51;;;;;;;4.63;2.80;;;;;;;-148.88;62.63;75655.34;5033914;28;20087;-79
2022/09/04 06:37:25;;;;;;;3.70;2.80;;;;;;;-148.88;62.15;75647.22;5040651;28;20054;-78
2022/09/04 06:40:48;;;;;;;6.55;2.88;;;;;;;-148.88;61.95;75643.16;5039600;28;20025;-78
2022/09/04 06:43:19;;;;;;;5.30;2.63;;;;;;;-148.88;61.70;75635.03;5035525;28;20036;-78
2022/09/04 06:46:18;;;;;;;4.65;2.30;;;;;;;-148.88;61.79;75628.94;5036847;28;20025;-77
2022/09/04 06:49:17;;;;;;;4.55;2.50;;;;;;;-148.88;61.63;75618.78;5040181;28;20037;-78
2022/09/04 06:52:40;;;;;;;5.18;2.53;;;;;;;-148.88;61.32;75608.63;5043057;28;20032;-78
2022/09/04 06:55:27;;;;;;;4.43;2.72;;;;;;;-148.88;61.59;75598.47;5041444;28;20451;-78
2022/09/04 06:57:59;;;;;;;3.80;2.30;;;;;;;-148.88;61.86;75582.22;5041516;28;20049;-78
2022/09/04 07:00:29;;;;;;;4.80;2.70;;;;;;;-148.88;61.30;75574.13;5045291;28;20022;-77
2022/09/04 07:03:15;;;;;;;5.70;2.72;;;;;;;-148.88;61.16;75566.00;5043113;28;20051;-78
2022/09/04 07:06:03;;;;;;;5.63;2.17;;;;;;;-148.88;61.72;75545.69;5042416;28;20021;-78
2022/09/04 07:09:01;;;;;;;3.67;2.55;;;;;;;-148.88;60.49;75533.50;5043050;28;20395;-77
2022/09/04 07:12:08;;;;;;;3.33;2.22;;;;;;;-148.88;60.03;75517.25;5042233;28;20028;-77
2022/09/04 07:14:46;;;;;;;5.18;2.58;;;;;;;-148.88;60.21;75507.09;5044105;28;20065;-78
2022/09/04 07:17:29;;;;;;;4.53;2.40;;;;;;;-148.88;58.39;75482.72;5043911;28;20129;-78
2022/09/04 07:20:14;;;;;;;5.47;2.38;;;;;;;-148.88;59.45;75480.69;5036255;28;20403;-77
2022/09/04 07:23:17;;;;;;;4.78;2.38;;;;;;;-148.88;59.25;75468.50;5038575;28;20021;-78
2022/09/04 07:25:52;;;;;;;4.90;2.30;;;;;;;-148.88;58.24;75448.19;5042544;28;20109;-77
2022/09/04 07:28:40;;;;;;;6.30;2.72;;;;;;;-148.88;58.62;75448.19;5041211;28;20025;-78
2022/09/04 07:31:41;;;;;;;5.75;2.65;;;;;;;-148.88;57.86;75433.97;5042503;28;20025;-77
2022/09/04 07:34:20;;;;;;;5.63;2.30;;;;;;;-148.88;58.75;75415.69;5039805;28;20102;-78
2022/09/04 07:36:54;;;;;;;6.68;2.60;;;;;;;-148.88;57.23;75409.59;5045029;28;20029;-78
2022/09/04 07:39:28;;;;;;;3.67;2.30;;;;;;;-148.88;56.75;75391.31;5044965;28;20025;-79
2022/09/04 07:42:02;;;;;;;3.90;2.30;;;;;;;-148.88;57.30;75379.13;5046370;28;20014;-78
2022/09/04 07:44:43;;;;;;;4.75;2.60;;;;;;;-148.88;57.74;75368.97;5042730;28;20033;-79
2022/09/04 07:47:28;;;;;;;3.08;2.33;;;;;;;-148.88;56.45;75356.78;5046632;28;20025;-78
2022/09/04 07:50:22;;;;;;;4.45;2.30;;;;;;;-148.88;55.31;75326.31;5045027;28;20021;-78
2022/09/04 07:53:27;;;;;;;4.70;2.40;;;;;;;-148.88;55.41;75314.13;5045386;28;20072;-80
2022/09/04 07:56:02;;;;;;;4.78;2.40;;;;;;;-148.88;55.28;75293.81;5041889;28;20033;-78
2022/09/04 07:58:49;;;;;;;3.60;2.13;;;;;;;-148.88;54.52;75277.59;5039433;28;20087;-78
2022/09/04 08:01:23;;;;;;;3.58;2.50;;;;;;;-148.88;55.03;75245.09;5043562;28;20035;-77
2022/09/04 08:04:21;;;;;;;4.35;2.10;;;;;;;-148.88;54.09;75226.81;5041609;28;20033;-79
2022/09/04 08:06:59;;;;;;;3.20;1.80;;;;;;;-148.88;52.35;75190.25;5043554;28;20044;-79
2022/09/04 08:09:36;;;;;;;3.03;1.98;;;;;;;-148.88;52.30;75180.09;5046129;28;20025;-80
2022/09/04 08:12:25;;;;;;;3.75;2.00;;;;;;;-148.88;52.43;75171.97;5045965;28;20029;-79
2022/09/04 08:15:09;;;;;;;4.13;1.92;;;;;;;-148.88;53.47;75163.84;5046236;28;20049;-80
2022/09/04 08:17:50;;;;;;;3.38;1.85;;;;;;;-148.88;51.79;75131.34;5047074;28;20052;-80
2022/09/04 08:20:48;;;;;;;3.70;1.90;;;;;;;-148.88;52.09;75111.03;5047722;28;20018;-80
2022/09/04 08:23:34;;;;;;;3.80;2.10;;;;;;;-148.88;51.05;75098.84;5046361;28;20037;-79
2022/09/04 08:26:27;;;;;;;4.57;2.00;;;;;;;-148.88;50.67;75106.97;5045118;28;20056;-78
2022/09/04 08:29:27;;;;;;;5.07;2.03;;;;;;;-148.88;52.24;75094.81;5048109;28;20028;-80
2022/09/04 08:32:10;;;;;;;4.93;2.08;;;;;;;-148.88;51.43;75070.44;5048594;28;20072;-79
2022/09/04 08:34:42;;;;;;;5.25;2.20;;;;;;;-148.88;52.09;75056.22;5045468;28;20472;-79
2022/09/04 08:37:23;;;;;;;3.78;2.22;;;;;;;-148.88;50.97;75033.88;5048959;28;20048;-79
2022/09/04 08:40:26;;;;;;;3.78;1.80;;;;;;;-148.88;51.30;75029.81;5045180;28;20077;-80
2022/09/04 08:43:11;;;;;;;3.20;2.00;;;;;;;-148.88;49.59;74993.25;5043094;28;20550;-79
2022/09/04 08:46:28;;;;;;;4.15;1.90;;;;;;;-148.88;49.06;75009.50;5041225;28;20029;-79
2022/09/04 08:49:09;;;;;;;4.18;1.80;;;;;;;-148.88;49.87;74983.09;5035897;28;20387;-78
2022/09/04 08:51:59;;;;;;;3.40;2.00;;;;;;;-148.88;49.87;74962.78;5034515;28;20049;-77
2022/09/04 08:54:56;;;;;;;3.90;2.00;;;;;;;-148.88;49.44;74960.75;5035638;28;20404;-76
2022/09/04 08:57:43;;;;;;;3.65;2.10;;;;;;;-148.88;49.45;74930.31;5034423;28;20035;-77
2022/09/04 09:00:14;;;;;;;2.92;1.80;;;;;;;-148.88;49.50;74920.16;5035804;28;20078;-77
2022/09/04 09:02:42;;;;;;;3.78;1.90;;;;;;;-148.88;47.94;74873.44;5035770;28;20017;-77
2022/09/04 09:05:21;;;;;;;4.60;1.83;;;;;;;-148.88;48.56;74845.00;5034215;28;20116;-77
2022/09/04 09:08:05;;;;;;;4.30;1.73;;;;;;;-148.88;46.28;74812.53;5034207;28;20513;-77
2022/09/04 09:10:34;;;;;;;4.38;1.80;;;;;;;-148.88;46.48;74786.13;5035819;28;20026;-75
2022/09/04 09:13:30;;;;;;;3.85;1.80;;;;;;;-148.88;45.95;74753.63;5034309;28;20021;-77
2022/09/04 09:16:23;;;;;;;3.95;1.90;;;;;;;-148.88;45.04;74725.19;5035371;28;20041;-77
2022/09/04 09:19:19;;;;;;;3.13;1.70;;;;;;;-148.88;44.37;74725.19;5035437;28;20396;-77
2022/09/04 09:21:58;;;;;;;3.20;1.70;;;;;;;-148.88;45.38;74721.13;5034011;28;20021;-77
2022/09/04 09:24:30;;;;;;;2.95;2.00;;;;;;;-148.88;45.33;74662.25;5033828;28;20503;-77
2022/09/04 09:27:32;;;;;;;4.88;1.90;;;;;;;-148.88;44.59;74676.47;5035248;28;20033;-77
2022/09/04 09:30:35;;;;;;;3.95;1.80;;;;;;;-148.88;44.74;74615.53;5035108;28;20084;-77
2022/09/04 09:33:25;;;;;;;2.53;1.70;;;;;;;-148.88;43.90;74581.03;5034873;28;20049;-77
2022/09/04 09:36:10;;;;;;;2.63;1.70;;;;;;;-148.88;43.53;74562.75;5035025;28;20036;-77
2022/09/04 09:39:07;;;;;;;4.63;1.85;;;;;;;-148.88;43.55;74524.16;5034189;28;20048;-77
2022/09/04 09:41:54;;;;;;;3.10;1.80;;;;;;;-148.88;42.38;74493.72;5035396;28;20025;-77
2022/09/04 09:45:05;;;;;;;2.10;1.50;;;;;;;-148.88;43.15;74489.66;5035297;28;20025;-77
2022/09/04 09:48:27;;;;;;;2.97;1.50;;;;;;;-148.88;41.96;74465.28;5033536;28;20400;-75
2022/09/04 09:51:25;;;;;;;2.15;1.30;;;;;;;-148.88;42.10;74418.56;5032522;28;20504;-77
2022/09/04 09:54:21;;;;;;;3.50;1.50;;;;;;;-148.88;41.42;74432.78;5032565;28;20037;-77
2022/09/04 09:57:05;;;;;;;3.65;1.38;;;;;;;-148.88;41.02;74426.69;5034328;28;20041;-77
2022/09/04 09:59:42;;;;;;;1.98;1.30;;;;;;;-148.88;41.18;74412.47;5034519;28;20013;-77
2022/09/04 10:02:26;;;;;;;3.88;1.42;;;;;;;-148.88;41.19;74373.91;5034496;28;20435;-77
2022/09/04 10:04:54;;;;;;;1.90;1.20;;;;;;;-148.88;40.56;74341.41;5034763;28;20396;-77
2022/09/04 10:07:40;;;;;;;2.08;1.30;;;;;;;-148.88;41.06;74351.56;5033147;28;20034;-77
2022/09/04 10:10:23;;;;;;;3.25;1.30;;;;;;;-148.88;41.19;74290.66;5033085;28;20021;-77
2022/09/04 10:13:26;;;;;;;2.00;1.25;;;;;;;-148.88;39.36;74317.06;5033132;28;20033;-77
2022/09/04 10:16:29;;;;;;;2.70;1.20;;;;;;;-148.88;40.19;74278.47;5034189;28;20025;-77
2022/09/04 10:19:10;;;;;;;3.05;1.30;;;;;;;-148.88;40.36;74231.78;5034515;28;20079;-77
2022/09/04 10:22:17;;;;;;;3.03;1.50;;;;;;;-148.88;38.40;74250.03;5033349;28;20483;-77
2022/09/04 10:24:48;;;;;;;2.55;1.58;;;;;;;-148.88;38.63;74217.56;5015326;28;20114;-77
2022/09/04 10:27:19;;;;;;;3.28;1.83;;;;;;;-148.88;39.28;74193.19;5034579;28;20029;-76
2022/09/04 10:30:01;;;;;;;2.72;1.42;;;;;;;-148.88;38.69;74152.59;5032770;28;20021;-77
2022/09/04 10:32:32;;;;;;;3.38;1.45;;;;;;;-148.88;38.73;74124.16;5034159;28;20022;-77
2022/09/04 10:35:06;;;;;;;2.22;1.60;;;;;;;-148.88;37.83;74132.28;5032581;28;20036;-77
2022/09/04 10:38:01;;;;;;;3.15;1.55;;;;;;;-148.88;37.84;74148.53;5032798;28;20368;-77
2022/09/04 10:40:44;;;;;;;2.28;1.50;;;;;;;-148.88;37.85;74126.19;5034104;28;20029;-77
2022/09/04 10:43:28;;;;;;;;;;;;;;;-148.88;37.64;74156.66;5033452;28;20098;-77
2022/09/04 10:46:13;;;;;;;3.17;1.80;;;;;;;-148.88;38.63;74219.59;5033850;28;20403;-77
2022/09/04 10:49:15;;;;;;;2.80;1.48;;;;;;;-148.88;37.76;74128.22;5033679;28;20029;-77
2022/09/04 10:51:49;;;;;;;2.60;1.45;;;;;;;-148.88;38.13;74081.53;5033741;28;20022;-76
2022/09/04 10:54:24;;;;;;;1.80;1.13;;;;;;;-148.88;37.60;74063.25;5032242;28;20026;-77
2022/09/04 10:57:03;;;;;;;2.03;1.23;;;;;;;-148.88;37.52;74026.72;5032246;28;20032;-77
2022/09/04 10:59:49;;;;;;;2.35;1.02;;;;;;;-148.88;36.85;74022.66;5033510;28;20030;-77
2022/09/04 11:02:31;;;;;;;2.20;1.10;;;;;;;-148.88;36.70;73998.28;5033459;28;20029;-77
2022/09/04 11:05:19;;;;;;;2.50;1.30;;;;;;;-148.88;36.32;74057.16;5033511;28;20045;-75
2022/09/04 11:08:12;;;;;;;1.70;1.20;;;;;;;-148.88;37.03;74099.78;5032027;28;20557;-77
2022/09/04 11:10:54;;;;;;;2.80;1.25;;;;;;;-148.88;37.91;74044.97;5032151;28;20037;-77
2022/09/04 11:13:39;;;;;;;1.60;1.00;;;;;;;-148.88;36.35;73988.13;5033305;28;20030;-77
2022/09/04 11:16:16;;;;;;;1.95;1.02;;;;;;;-148.88;35.89;73998.28;5033233;28;20510;-77
2022/09/04 11:18:59;;;;;;;2.08;1.30;;;;;;;-148.88;35.75;74024.69;5033469;28;20026;-77
2022/09/04 11:21:42;;;;;;;1.90;1.27;;;;;;;-148.88;36.85;74055.13;5033293;28;20025;-77
2022/09/04 11:24:36;;;;;;;2.25;1.00;;;;;;;-148.88;36.38;73996.25;5055595;22;20403;-85
2022/09/04 11:27:18;;;;;;;2.15;1.25;;;;;;;-148.88;35.38;74002.34;5059544;28;20384;-84
2022/09/04 11:29:53;;;;;;;2.95;1.27;;;;;;;-148.88;35.44;73973.91;5057585;28;20045;-85
2022/09/04 11:32:34;;;;;;;3.67;1.10;;;;;;;-148.88;35.38;73931.28;5059074;28;20021;-84
2022/09/04 11:35:25;;;;;;;2.38;1.20;;;;;;;-148.88;35.75;73910.97;5038520;28;20099;-84
2022/09/04 11:38:27;;;;;;;2.35;1.17;;;;;;;-148.88;35.09;73941.44;5055826;22;20567;-84
2022/09/04 11:41:30;;;;;;;4.22;1.48;;;;;;;-148.88;34.78;73982.03;5032683;28;20032;-84
2022/09/04 11:44:10;;;;;;;1.37;0.93;;;;;;;-148.88;35.27;73996.25;5032521;28;20044;-85
2022/09/04 11:47:05;;;;;;;1.65;1.10;;;;;;;-148.88;34.73;73982.03;5032778;28;20667;-84
2022/09/04 11:50:07;;;;;;;2.72;1.23;;;;;;;-148.88;35.44;74024.69;5032724;28;20424;-84
2022/09/04 11:52:54;;;;;;;1.77;1.02;;;;;;;-148.88;34.97;73973.91;5031299;28;20479;-85
2022/09/04 11:55:56;;;;;;;3.65;0.98;;;;;;;-148.88;35.22;73937.38;5032646;28;20029;-85
2022/09/04 11:58:54;;;;;;;2.80;1.10;;;;;;;-148.88;34.96;73937.38;5032692;28;20135;-85
2022/09/04 12:01:25;;;;;;;3.13;1.20;;;;;;;-148.88;34.08;73904.88;5032165;28;20116;-86
2022/09/04 12:04:27;;;;;;;1.85;1.13;;;;;;;-148.88;34.42;73969.84;5036297;28;20025;-84
2022/09/04 12:06:58;;;;;;;1.95;1.20;;;;;;;-148.88;35.04;74018.59;5036219;28;20017;-85
2022/09/04 12:09:39;;;;;;;1.60;0.90;;;;;;;-148.88;35.09;74016.56;5036378;28;20059;-85
2022/09/04 12:12:41;;;;;;;4.07;1.20;;;;;;;-148.88;35.15;73984.06;5036436;28;20539;-85
2022/09/04 12:15:34;;;;;;;3.67;1.30;;;;;;;-148.88;36.02;74093.72;5035944;28;20403;-85
2022/09/04 12:18:30;;;;;;;3.47;1.20;;;;;;;-148.88;35.03;74083.56;5036028;28;20025;-86
2022/09/04 12:21:11;;;;;;;1.50;1.10;;;;;;;-148.88;35.49;74103.84;5036313;28;20021;-86
2022/09/04 12:23:57;;;;;;;2.28;0.90;;;;;;;-148.88;35.65;74089.66;5036258;28;20448;-87
2022/09/04 12:26:46;;;;;;;2.22;1.17;;;;;;;-148.88;36.04;74055.13;5034879;28;20547;-86
2022/09/04 12:29:43;;;;;;;2.00;0.98;;;;;;;-148.88;34.99;73977.97;5035157;28;20037;-86
2022/09/04 12:32:36;;;;;;;1.88;1.00;;;;;;;-148.88;34.49;73957.69;5036195;28;20029;-85
2022/09/04 12:35:30;;;;;;;2.55;0.90;;;;;;;-148.88;34.01;73913.00;5036747;28;20379;-85
2022/09/04 12:38:20;;;;;;;1.73;1.10;;;;;;;-148.88;33.49;73904.88;5037085;28;20523;-85
2022/09/04 12:41:24;;;;;;;2.60;1.13;;;;;;;-148.88;33.22;73937.38;5039174;28;20048;-87
2022/09/04 12:44:10;;;;;;;1.45;0.95;;;;;;;-148.88;34.67;73986.09;5037958;28;20518;-86
2022/09/04 12:47:27;;;;;;;2.33;1.13;;;;;;;-148.88;34.54;73982.03;5040125;28;20053;-85
2022/09/04 12:50:43;;;;;;;1.40;1.00;;;;;;;-148.88;34.79;73957.69;5022390;28;20057;-85